MST,Max TemperatureF,Mean TemperatureF,Min TemperatureF,Max Dew PointF,MeanDew PointF,Min DewpointF,Max Humidity, Mean Humidity, Min Humidity, Max Sea Level PressureIn, Mean Sea Level PressureIn, Min Sea Level PressureIn, Max VisibilityMiles, Mean VisibilityMiles, Min VisibilityMiles, Max Wind SpeedMPH, Mean Wind SpeedMPH, Max Gust SpeedMPH,PrecipitationIn, CloudCover, Events, WindDirDegrees
2014-1-1,62,44,26,21,17,15,63,40,19,30.22,30.16,30.09,10,10,10,12,5,14,0.00,0,,196
2014-1-2,61,42,23,17,14,10,63,40,15,30.28,30.19,30.11,10,10,10,12,5,14,0.00,0,,205
2014-1-3,61,42,23,20,17,15,68,42,17,30.13,30.02,29.91,10,10,10,12,4,14,0.00,0,,185
2014-1-4,60,44,27,22,18,9,61,40,19,30.07,29.94,29.83,10,10,10,20,6,25,0.00,0,,257
2014-1-5,53,39,24,10,-1,-10,46,25,7,30.26,30.15,30.04,10,10,10,20,8,26,0.00,0,,294
2014-1-6,56,38,20,9,3,-2,45,29,11,30.38,30.28,30.20,10,10,10,10,4,12,0.00,0,,245
2014-1-7,57,41,24,15,11,9,60,38,15,30.22,30.14,30.04,10,10,10,10,3,13,0.00,0,,191
2014-1-8,59,41,22,15,11,8,59,36,15,30.11,30.06,29.98,10,10,10,12,4,14,0.00,0,,186
2014-1-9,55,42,28,18,15,12,58,40,18,30.07,30.01,29.92,10,10,10,13,5,16,0.00,0,,204
2014-1-10,59,42,25,21,18,14,68,44,21,30.16,30.07,29.99,10,10,10,15,6,17,0.00,0,,242
2014-1-11,62,44,26,24,22,19,69,46,20,30.21,30.12,29.95,10,10,10,12,6,13,0.00,0,,198
2014-1-12,58,45,31,24,14,5,54,30,12,30.24,30.03,29.89,10,10,10,22,9,30,0.00,0,,299
2014-1-13,57,40,23,14,11,7,50,33,16,30.39,30.32,30.25,10,10,10,16,7,22,0.00,0,,284
2014-1-14,63,45,27,15,12,9,58,34,12,30.41,30.34,30.28,10,10,10,12,5,14,0.00,0,,257
2014-1-15,65,45,25,15,12,8,55,32,13,30.42,30.31,30.20,10,10,10,10,5,13,0.00,0,,261
2014-1-16,64,44,24,14,9,2,55,31,8,30.29,30.21,30.13,10,10,10,14,5,25,0.00,0,,216
2014-1-17,62,43,24,12,8,6,50,30,11,30.31,30.21,30.13,10,10,10,10,4,12,0.00,0,,210
2014-1-18,65,45,24,14,10,7,55,32,10,30.23,30.16,30.09,10,10,10,12,5,13,0.00,0,,204
2014-1-19,65,45,24,14,12,10,55,34,12,30.28,30.19,30.12,10,10,10,10,4,,0.00,0,,197
2014-1-20,64,45,26,14,10,2,55,31,9,30.31,30.20,30.12,10,10,10,12,5,15,0.00,0,,226
2014-1-21,62,44,25,15,11,8,50,33,14,30.37,30.25,30.14,10,10,10,12,6,14,0.00,0,,223
2014-1-22,64,48,31,20,13,3,48,31,9,30.10,29.98,29.86,10,10,10,15,4,18,0.00,0,,219
2014-1-23,58,42,25,12,10,8,46,31,14,30.24,30.05,29.89,10,10,10,14,5,18,0.00,0,,174
2014-1-24,57,43,29,18,14,11,49,34,16,30.38,30.30,30.22,10,10,10,9,4,13,0.00,0,,258
2014-1-25,62,49,35,18,15,9,44,30,12,30.27,30.17,30.08,10,10,10,12,4,14,0.00,4,,241
2014-1-26,63,46,28,18,10,-1,58,31,10,30.12,30.02,29.93,10,10,10,10,6,14,0.00,0,,195
2014-1-27,62,47,32,14,8,-5,38,24,7,30.04,29.96,29.89,10,10,10,12,6,15,0.00,0,,225
2014-1-28,60,44,28,12,7,1,39,26,10,30.14,30.07,30.00,10,10,10,10,6,13,0.00,1,,220
2014-1-29,67,47,27,22,15,6,46,29,15,30.16,30.03,29.88,10,10,10,15,7,19,0.00,0,,203
2014-1-30,61,51,41,23,19,11,41,28,21,29.87,29.77,29.64,10,10,10,26,12,35,0.00,2,,192
2014-1-31,50,43,36,36,28,23,79,57,33,29.77,29.71,29.62,10,10,8,28,11,33,0.05,3,Rain,230